Time;durP1;ratioP1;P1;durP2;ratioP2;P2;SDS_P1;SDS_P2;PMS_P1;PMS_P2;Temp;Humidity;BMP_temperature;BMP_pressure;BME280_temperature;BME280_humidity;BME280_pressure;Samples;Min_cycle;Max_cycle;Signal;HPM_P1;HPM_P2
2022/04/20 00:00:05;;;;;;;23.70;15.00;;;;;;;6.08;54.58;100658.98;107224;1251;60798;-71
2022/04/20 00:02:57;;;;;;;25.40;14.50;;;;;;;6.10;54.12;100659.35;107224;1251;73610;-71
2022/04/20 00:05:27;;;;;;;26.40;15.40;;;;;;;6.14;53.75;100658.98;107245;1250;69575;-71
2022/04/20 00:07:55;;;;;;;24.90;14.90;;;;;;;6.11;53.93;100660.69;107285;1251;70538;-71
2022/04/20 00:10:24;;;;;;;22.90;15.20;;;;;;;6.15;54.19;100660.16;107270;1251;73150;-71
2022/04/20 00:12:53;;;;;;;23.00;13.60;;;;;;;6.18;54.00;100661.36;107262;1251;59261;-71
2022/04/20 00:15:23;;;;;;;21.80;12.90;;;;;;;6.18;53.89;100659.80;107234;1251;59722;-70
2022/04/20 00:17:52;;;;;;;22.50;13.60;;;;;;;6.13;54.84;100663.17;107257;1250;72885;-70
2022/04/20 00:20:21;;;;;;;23.80;13.90;;;;;;;6.08;55.58;100663.14;107306;1250;73228;-70
2022/04/20 00:22:49;;;;;;;22.50;13.80;;;;;;;6.07;55.28;100665.07;107255;1251;70491;-71
2022/04/20 00:25:19;;;;;;;22.50;14.00;;;;;;;6.10;54.53;100665.22;107244;1251;73067;-73
2022/04/20 00:27:48;;;;;;;24.60;14.00;;;;;;;6.10;54.07;100657.09;107297;1251;59564;-71
2022/04/20 00:30:17;;;;;;;22.40;13.70;;;;;;;6.14;53.57;100659.02;107263;1250;60680;-74
2022/04/20 00:32:46;;;;;;;24.10;13.40;;;;;;;6.14;53.25;100663.98;107119;1251;71231;-73
2022/04/20 00:35:15;;;;;;;17.50;11.40;;;;;;;6.15;52.54;100665.18;107290;1251;69651;-75
2022/04/20 00:37:45;;;;;;;19.50;12.20;;;;;;;6.14;52.12;100666.27;107284;1251;67898;-75
2022/04/20 00:40:14;;;;;;;21.50;12.90;;;;;;;6.14;50.49;100666.62;107261;1251;73903;-75
2022/04/20 00:42:44;;;;;;;19.50;11.60;;;;;;;6.17;51.61;100670.22;107295;1251;59438;-73
2022/04/20 00:45:13;;;;;;;21.90;12.10;;;;;;;6.10;52.09;100674.62;107332;1251;59060;-70
2022/04/20 00:47:43;;;;;;;18.60;11.80;;;;;;;6.03;52.71;100674.63;107453;1250;74789;-76
2022/04/20 00:50:13;;;;;;;23.30;12.80;;;;;;;6.02;52.24;100674.70;107300;1251;72862;-77
2022/04/20 00:52:42;;;;;;;21.90;12.60;;;;;;;6.03;53.11;100674.81;107260;1250;68120;-71
2022/04/20 00:55:30;;;;;;;20.70;12.00;;;;;;;6.05;52.96;100672.58;107370;1250;73526;-72
2022/04/20 00:58:01;;;;;;;21.40;12.60;;;;;;;6.10;52.91;100672.85;107147;1251;59980;-72
2022/04/20 01:00:31;;;;;;;20.40;12.80;;;;;;;6.16;53.03;100674.09;107194;1251;59412;-72
2022/04/20 01:03:01;;;;;;;20.50;12.50;;;;;;;6.17;53.44;100675.59;107147;1250;72817;-73
2022/04/20 01:06:23;;;;;;;20.00;12.00;;;;;;;6.19;53.19;100677.04;106878;1251;70434;-70
2022/04/20 01:09:45;;;;;;;21.10;11.80;;;;;;;6.24;54.23;100675.20;107193;1251;69852;-72
2022/04/20 01:12:55;;;;;;;17.90;11.60;;;;;;;6.26;53.80;100679.79;106799;1253;72276;-72
2022/04/20 01:16:17;;;;;;;16.40;11.10;;;;;;;6.17;54.77;100675.93;106845;1253;59483;-72
2022/04/20 01:19:04;;;;;;;20.90;10.90;;;;;;;6.13;54.14;100674.60;107089;1251;60221;-70
2022/04/20 01:22:20;;;;;;;16.80;10.10;;;;;;;6.15;52.57;100673.80;106763;1252;71959;-74
2022/04/20 01:25:29;;;;;;;18.70;10.20;;;;;;;6.11;52.49;100670.71;106832;1251;72437;-73
2022/04/20 01:28:06;;;;;;;19.40;10.00;;;;;;;6.06;52.95;100671.14;107001;1251;70786;-73
2022/04/20 01:30:44;;;;;;;19.00;10.00;;;;;;;6.00;52.51;100677.03;106979;1251;72917;-72
2022/04/20 01:33:39;;;;;;;17.50;9.90;;;;;;;5.94;52.52;100674.09;107020;1251;60846;-75
2022/04/20 01:36:09;;;;;;;16.10;9.20;;;;;;;5.91;52.82;100674.04;106933;1253;62657;-72
2022/04/20 01:38:39;;;;;;;15.90;9.80;;;;;;;5.90;54.31;100677.56;106863;1251;72274;-71
2022/04/20 01:41:07;;;;;;;15.70;9.90;;;;;;;5.92;53.57;100674.36;106788;1253;74058;-73
2022/04/20 01:43:37;;;;;;;15.50;9.50;;;;;;;5.91;52.72;100673.55;106950;1251;69251;-72
2022/04/20 01:46:18;;;;;;;15.00;10.10;;;;;;;5.88;53.68;100672.81;106980;1249;72379;-74
2022/04/20 01:49:00;;;;;;;15.90;10.00;;;;;;;5.86;54.93;100673.08;107090;1251;59029;-72
2022/04/20 01:52:24;;;;;;;17.00;9.50;;;;;;;5.89;55.45;100672.91;106729;1256;59602;-74
2022/04/20 01:55:37;;;;;;;14.90;9.40;;;;;;;5.92;55.09;100673.29;106690;1251;74108;-72
2022/04/20 01:58:20;;;;;;;16.00;9.60;;;;;;;5.95;54.82;100672.96;106972;1251;73599;-71
2022/04/20 02:04:27;;;;;;;16.50;10.30;;;;;;;5.99;55.89;100671.88;107013;1250;71161;-74
2022/04/20 02:06:56;;;;;;;18.20;10.40;;;;;;;5.96;56.62;100667.91;106859;1250;60475;-74
2022/04/20 02:09:29;;;;;;;;;;;;;;;5.98;57.44;100669.02;106962;1252;60178;-73
2022/04/20 02:12:01;;;;;;;16.00;9.70;;;;;;;5.96;56.51;100666.02;106944;1250;74805;-75
2022/04/20 02:15:23;;;;;;;14.20;8.90;;;;;;;5.95;55.68;100667.62;106748;1254;72944;-74
2022/04/20 02:18:04;;;;;;;14.10;8.80;;;;;;;5.90;56.32;100669.75;106905;1251;71353;-73
2022/04/20 02:21:17;;;;;;;14.40;8.60;;;;;;;5.87;55.28;100670.06;106762;1252;72205;-76
2022/04/20 02:23:46;;;;;;;12.10;7.70;;;;;;;5.84;54.35;100672.67;107138;1251;59300;-74
2022/04/20 02:26:15;;;;;;;11.50;8.20;;;;;;;5.79;53.55;100670.84;106968;1251;58934;-73
2022/04/20 02:28:44;;;;;;;13.10;9.70;;;;;;;5.79;53.66;100671.22;106997;1251;70911;-71
2022/04/20 02:31:14;;;;;;;13.30;8.90;;;;;;;5.81;54.15;100671.79;107011;1251;69754;-69
2022/04/20 02:33:44;;;;;;;18.10;10.90;;;;;;;5.80;53.60;100670.44;107079;1251;70559;-69
2022/04/20 02:36:13;;;;;;;15.60;9.90;;;;;;;5.81;53.92;100671.27;106904;1251;75013;-69
2022/04/20 02:38:42;;;;;;;17.90;9.30;;;;;;;5.83;54.68;100669.60;107055;1253;60121;-69
2022/04/20 02:41:14;;;;;;;15.10;9.20;;;;;;;5.84;54.61;100670.58;107062;1251;61123;-71
2022/04/20 02:43:43;;;;;;;13.80;9.10;;;;;;;5.86;55.09;100667.38;107072;1252;72165;-72
2022/04/20 02:46:12;;;;;;;14.90;9.40;;;;;;;5.88;54.47;100669.19;107045;1251;69605;-73
2022/04/20 02:48:41;;;;;;;12.70;9.00;;;;;;;5.89;54.06;100672.75;107144;1251;69381;-73
2022/04/20 02:51:10;;;;;;;14.00;9.80;;;;;;;5.88;53.85;100673.88;107044;1251;72248;-72
2022/04/20 02:53:39;;;;;;;14.20;8.60;;;;;;;5.90;53.94;100676.67;107151;1251;58937;-71
2022/04/20 02:56:08;;;;;;;16.50;8.70;;;;;;;5.91;54.16;100675.10;107161;1251;58984;-71
2022/04/20 02:58:37;;;;;;;15.30;8.40;;;;;;;5.91;53.71;100672.84;107084;1253;72583;-72
2022/04/20 03:01:06;;;;;;;12.20;8.30;;;;;;;5.83;53.85;100672.55;107247;1250;72307;-73
2022/04/20 03:03:38;;;;;;;12.20;8.00;;;;;;;5.67;53.84;100673.02;107253;1251;70607;-74
2022/04/20 03:06:28;;;;;;;12.50;8.00;;;;;;;5.52;55.68;100675.40;107394;1250;71969;-74
2022/04/20 03:08:59;;;;;;;;;;;;;;;5.48;55.60;100675.23;107358;1251;59368;-74
2022/04/20 03:11:28;;;;;;;11.90;8.50;;;;;;;5.40;57.99;100676.02;107385;1250;60515;-71
2022/04/20 03:13:57;;;;;;;15.10;8.60;;;;;;;5.36;58.43;100675.20;107394;1250;74702;-73
2022/04/20 03:16:26;;;;;;;15.30;9.40;;;;;;;5.35;58.56;100676.44;107234;1251;71929;-71
2022/04/20 03:18:56;;;;;;;13.30;7.00;;;;;;;5.39;56.34;100682.09;107332;1250;70485;-71
2022/04/20 03:21:27;;;;;;;13.70;8.10;;;;;;;5.42;54.20;100678.46;107269;1250;73128;-72
2022/04/20 03:23:59;;;;;;;20.50;8.40;;;;;;;5.44;54.20;100672.88;107201;1250;58788;-72
2022/04/20 03:27:11;;;;;;;14.00;8.20;;;;;;;5.49;56.29;100673.98;107211;1250;59526;-72
2022/04/20 03:29:50;;;;;;;16.80;8.70;;;;;;;5.54;55.93;100677.02;107163;1251;73246;-74
2022/04/20 03:32:22;;;;;;;13.50;9.50;;;;;;;5.57;54.02;100676.52;107123;1250;69635;-75
2022/04/20 03:34:51;;;;;;;16.80;8.60;;;;;;;5.56;54.70;100680.69;107148;1251;70601;-75
2022/04/20 03:37:20;;;;;;;16.20;9.30;;;;;;;5.55;54.30;100685.58;107134;1251;73807;-74
2022/04/20 03:39:49;;;;;;;12.30;6.90;;;;;;;5.60;54.74;100686.20;106774;1251;60010;-76
2022/04/20 03:42:18;;;;;;;18.20;10.80;;;;;;;5.57;54.81;100683.75;107032;1253;59673;-74
2022/04/20 03:44:48;;;;;;;21.70;11.20;;;;;;;5.46;54.91;100686.27;107297;1251;70740;-74
2022/04/20 03:47:19;;;;;;;16.40;10.40;;;;;;;5.40;55.11;100689.48;107203;1253;70345;-75
2022/04/20 03:49:48;;;;;;;17.80;11.00;;;;;;;5.44;54.85;100690.34;107197;1251;70561;-77
2022/04/20 03:52:16;;;;;;;16.20;11.30;;;;;;;5.44;54.43;100692.41;107177;1251;73875;-76
2022/04/20 03:54:45;;;;;;;25.70;12.10;;;;;;;5.43;55.05;100693.30;107136;1253;59599;-72
2022/04/20 03:57:14;;;;;;;22.50;12.70;;;;;;;5.53;55.52;100694.66;107349;1251;59581;-76
2022/04/20 03:59:47;;;;;;;18.60;11.30;;;;;;;5.60;55.62;100698.83;107594;1250;72777;-75
2022/04/20 04:02:18;;;;;;;22.10;11.70;;;;;;;5.68;55.07;100698.95;107441;1251;69971;-73
2022/04/20 04:04:51;;;;;;;19.10;10.40;;;;;;;5.69;54.92;100700.80;107568;1251;67954;-78
2022/04/20 04:07:28;;;;;;;16.30;9.10;;;;;;;5.66;54.80;100702.15;107417;1251;73097;-74
2022/04/20 04:09:57;;;;;;;18.70;11.10;;;;;;;5.61;54.54;100703.42;106981;1251;600985;-75
2022/04/20 04:12:27;;;;;;;17.40;11.00;;;;;;;5.52;54.86;100703.38;107398;1251;61502;-80
2022/04/20 04:14:59;;;;;;;20.90;11.70;;;;;;;5.55;55.56;100704.41;106875;1254;74415;-75
2022/04/20 04:17:28;;;;;;;20.70;11.50;;;;;;;5.64;54.60;100710.19;107051;1251;71855;-76
2022/04/20 04:19:57;;;;;;;22.00;13.20;;;;;;;5.72;54.26;100710.12;107051;1251;69749;-77
2022/04/20 04:22:26;;;;;;;21.00;11.70;;;;;;;5.83;54.04;100706.59;106995;1251;72943;-75
2022/04/20 04:25:36;;;;;;;24.90;11.80;;;;;;;5.96;54.31;100705.78;107340;1251;59487;-77
2022/04/20 04:28:05;;;;;;;22.50;11.40;;;;;;;6.03;54.08;100710.42;107116;1251;60712;-76
2022/04/20 04:30:35;;;;;;;21.60;12.20;;;;;;;6.04;54.45;100701.36;107116;1251;70757;-73
2022/04/20 04:33:05;;;;;;;19.90;12.20;;;;;;;6.10;54.19;100706.55;106961;1251;71528;-73
2022/04/20 04:35:34;;;;;;;21.10;12.20;;;;;;;6.21;54.39;100711.20;107017;1251;71444;-74
2022/04/20 04:38:03;;;;;;;21.00;12.20;;;;;;;6.31;53.94;100716.86;107148;1251;74282;-75
2022/04/20 04:40:33;;;;;;;22.30;12.30;;;;;;;6.35;53.45;100716.13;107136;1251;59268;-74
2022/04/20 04:43:04;;;;;;;18.30;10.80;;;;;;;6.46;53.09;100720.20;107031;1251;61810;-75
2022/04/20 04:48:42;;;;;;;25.10;12.20;;;;;;;6.36;52.86;100719.31;107084;1251;73202;-74
2022/04/20 04:51:16;;;;;;;24.40;13.50;;;;;;;6.50;52.76;100718.89;107036;1251;69262;-75
2022/04/20 04:53:45;;;;;;;28.40;14.50;;;;;;;6.61;53.20;100720.02;107078;1251;71209;-75
2022/04/20 04:56:27;;;;;;;27.30;13.50;;;;;;;6.71;53.16;100719.46;107177;1251;59859;-74
2022/04/20 04:58:56;;;;;;;25.50;13.90;;;;;;;6.76;52.12;100720.41;107152;1253;61734;-74
2022/04/20 05:01:25;;;;;;;27.80;15.20;;;;;;;6.71;52.49;100722.08;107194;1250;74064;-72
2022/04/20 05:03:55;;;;;;;30.80;15.00;;;;;;;6.79;52.10;100727.71;107002;1251;70407;-74
2022/04/20 05:06:24;;;;;;;29.90;14.50;;;;;;;6.91;50.97;100726.63;107085;1250;69764;-77
2022/04/20 05:09:20;;;;;;;26.80;15.20;;;;;;;6.99;49.15;100725.52;107109;1250;74785;-74
2022/04/20 05:11:49;;;;;;;31.60;16.10;;;;;;;7.10;49.74;100732.31;106915;1251;60947;-74
2022/04/20 05:14:19;;;;;;;33.90;14.70;;;;;;;7.28;49.94;100731.13;107102;1250;60432;-74
2022/04/20 05:16:49;;;;;;;29.20;14.10;;;;;;;7.32;48.22;100724.30;106797;1250;71699;-75
2022/04/20 05:19:18;;;;;;;25.80;14.00;;;;;;;7.44;47.65;100724.64;107466;1252;69393;-74
2022/04/20 05:21:48;;;;;;;31.70;13.90;;;;;;;7.61;48.32;100728.13;107025;1251;69875;-75
2022/04/20 05:24:18;;;;;;;24.40;14.00;;;;;;;7.79;48.50;100726.38;106982;1251;73811;-76
2022/04/20 05:26:47;;;;;;;28.10;14.60;;;;;;;7.71;47.37;100726.31;107201;1251;59285;-76
2022/04/20 05:29:18;;;;;;;31.50;15.50;;;;;;;7.82;48.12;100734.83;107194;1251;58919;-76
2022/04/20 05:32:03;;;;;;;32.70;14.40;;;;;;;8.02;47.04;100736.21;107254;1250;73086;-75
2022/04/20 05:34:33;;;;;;;28.40;14.30;;;;;;;8.19;45.75;100740.02;107166;1251;72665;-75
2022/04/20 05:42:43;;;;;;;21.90;11.90;;;;;;;8.27;46.90;100753.58;107402;1251;60040;-82
2022/04/20 05:45:14;;;;;;;17.50;10.90;;;;;;;8.23;47.30;100754.90;107359;1250;60769;-77
2022/04/20 05:47:47;;;;;;;20.70;11.20;;;;;;;8.24;46.54;100755.30;107907;1250;71681;-78
2022/04/20 05:50:16;;;;;;;23.10;12.60;;;;;;;8.18;46.69;100750.67;108740;1240;72268;-74
2022/04/20 05:52:45;;;;;;;24.60;13.90;;;;;;;8.14;47.01;100756.45;108410;1250;69292;-80
2022/04/20 05:55:30;;;;;;;25.70;15.10;;;;;;;8.18;47.18;100757.42;108084;1253;73126;-77
2022/04/20 05:58:00;;;;;;;24.80;13.50;;;;;;;8.23;46.90;100759.75;107397;1253;60534;-74
2022/04/20 06:00:30;;;;;;;22.60;12.00;;;;;;;8.34;46.61;100762.02;107047;1253;60827;-74
2022/04/20 06:03:46;;;;;;;22.40;12.40;;;;;;;8.41;46.60;100763.48;106623;1255;75372;-74
2022/04/20 06:06:58;;;;;;;27.70;13.50;;;;;;;8.27;46.88;100761.71;106756;1253;73560;-75
2022/04/20 06:09:33;;;;;;;20.80;12.60;;;;;;;8.26;47.09;100760.23;106977;1252;70162;-75
2022/04/20 06:12:07;;;;;;;22.00;12.90;;;;;;;8.35;47.23;100758.86;106916;1255;75410;-74
2022/04/20 06:14:54;;;;;;;24.60;12.50;;;;;;;8.26;47.47;100757.67;107225;1252;58962;-75
2022/04/20 06:18:12;;;;;;;22.50;11.90;;;;;;;8.24;47.84;100759.16;106548;1255;60304;-74
2022/04/20 06:20:46;;;;;;;21.70;12.40;;;;;;;8.46;46.67;100759.89;107324;1250;71430;-76
2022/04/20 06:23:27;;;;;;;18.40;11.50;;;;;;;8.54;46.58;100760.23;107149;1250;72249;-75
2022/04/20 06:26:45;;;;;;;23.50;11.70;;;;;;;8.64;46.04;100759.98;108714;1250;68523;-74
2022/04/20 06:29:32;;;;;;;24.30;11.90;;;;;;;8.80;44.75;100759.68;107252;1250;72774;-76
2022/04/20 06:32:23;;;;;;;17.60;10.10;;;;;;;8.74;45.43;100763.70;107464;1250;60569;-75
2022/04/20 06:35:11;;;;;;;20.60;11.10;;;;;;;8.98;44.71;100763.89;107108;1250;59023;-73
2022/04/20 06:37:58;;;;;;;21.50;11.70;;;;;;;9.00;44.18;100764.40;107388;1250;70573;-74
2022/04/20 06:40:54;;;;;;;21.50;11.60;;;;;;;8.98;44.51;100762.31;107527;1250;70395;-74
2022/04/20 06:43:43;;;;;;;22.80;12.00;;;;;;;8.89;43.51;100756.63;107488;1252;67970;-75
2022/04/20 06:46:24;;;;;;;20.40;11.30;;;;;;;9.06;43.61;100757.59;107397;1250;72997;-74
2022/04/20 14:33:51;;;;;;;16.10;8.70;;;;;;;11.83;41.14;100599.00;104379;1289;602152;-75
2022/04/20 14:36:21;;;;;;;12.50;8.50;;;;;;;11.76;41.78;100601.71;107085;1257;61717;-72
2022/04/20 14:38:50;;;;;;;13.00;8.50;;;;;;;11.63;41.74;100602.20;106825;1257;60738;-73
2022/04/20 14:41:20;;;;;;;12.70;8.50;;;;;;;11.36;41.53;100602.17;106693;1257;69523;-75
2022/04/20 14:43:49;;;;;;;13.20;9.60;;;;;;;11.55;41.03;100604.36;107091;1257;72223;-73
2022/04/20 14:46:18;;;;;;;14.10;7.90;;;;;;;11.43;41.08;100605.29;106623;1256;403777;-72
2022/04/20 14:48:47;;;;;;;13.20;8.40;;;;;;;11.53;40.83;100601.70;107090;1254;73023;-70
2022/04/20 14:51:21;;;;;;;12.50;8.50;;;;;;;11.42;40.84;100600.19;107014;1254;60022;-74
2022/04/20 14:53:50;;;;;;;15.20;8.00;;;;;;;11.10;41.13;100601.90;107156;1254;60497;-74
2022/04/20 14:56:19;;;;;;;12.30;7.80;;;;;;;11.07;41.28;100597.63;107017;1254;70214;-74
2022/04/20 14:58:49;;;;;;;10.70;7.80;;;;;;;11.18;41.44;100600.11;107264;1253;72212;-71
2022/04/20 15:01:17;;;;;;;14.50;8.00;;;;;;;11.15;41.50;100603.33;107243;1253;70143;-73
2022/04/20 15:03:46;;;;;;;10.00;6.80;;;;;;;11.28;41.11;100597.39;106833;1254;74765;-71
2022/04/20 15:06:16;;;;;;;7.70;5.30;;;;;;;11.61;39.25;100600.95;106876;1254;59079;-72
2022/04/20 15:08:44;;;;;;;13.40;7.80;;;;;;;11.55;39.00;100603.33;106879;1254;60251;-72
2022/04/20 15:11:13;;;;;;;16.10;8.80;;;;;;;11.36;39.94;100601.51;107016;1254;72350;-73
2022/04/20 15:13:43;;;;;;;11.10;8.40;;;;;;;11.44;39.89;100603.81;107197;1253;70627;-75
2022/04/20 15:16:12;;;;;;;12.70;7.90;;;;;;;11.40;39.75;100604.36;107180;1254;68722;-72
2022/04/20 15:18:42;;;;;;;8.20;6.00;;;;;;;11.32;39.84;100603.70;107307;1254;71962;-76
2022/04/20 15:21:11;;;;;;;13.50;8.20;;;;;;;11.39;39.55;100600.73;107561;1253;61267;-73
2022/04/20 15:23:54;;;;;;;12.10;8.00;;;;;;;11.30;39.91;100604.02;107392;1254;61111;-75
2022/04/20 15:26:24;;;;;;;12.90;8.40;;;;;;;11.17;40.17;100601.39;107320;1254;74453;-78
2022/04/20 15:28:53;;;;;;;12.90;8.90;;;;;;;11.22;40.17;100602.05;107366;1251;70475;-74
2022/04/20 15:31:28;;;;;;;14.40;8.10;;;;;;;11.36;40.06;100603.55;107339;1251;69125;-75
2022/04/20 15:33:58;;;;;;;11.10;7.20;;;;;;;11.40;39.90;100603.45;107477;1253;73162;-78
2022/04/20 15:36:29;;;;;;;12.70;7.20;;;;;;;11.29;40.14;100603.29;107622;1253;58966;-75
2022/04/20 15:38:58;;;;;;;13.50;8.10;;;;;;;11.31;39.87;100600.44;107799;1253;57801;-76
2022/04/20 15:41:27;;;;;;;11.10;6.80;;;;;;;11.24;40.02;100601.57;107692;1251;71803;-74
2022/04/20 15:43:56;;;;;;;11.60;7.10;;;;;;;11.30;39.93;100600.59;107372;1251;69867;-76
2022/04/20 15:46:25;;;;;;;12.80;8.00;;;;;;;11.29;40.02;100598.67;107422;1251;70667;-74
2022/04/20 15:48:54;;;;;;;10.70;6.60;;;;;;;11.31;40.24;100596.66;107525;1250;71541;-72
2022/04/20 15:51:24;;;;;;;11.10;8.00;;;;;;;11.41;40.04;100596.04;107318;1251;59750;-75
2022/04/20 15:53:53;;;;;;;16.10;10.10;;;;;;;11.26;40.38;100594.45;107395;1251;58940;-73
2022/04/20 16:02:01;;;;;;;15.00;7.70;;;;;;;11.19;41.29;100594.46;107500;1250;70181;-74
2022/04/20 16:04:35;;;;;;;13.30;8.80;;;;;;;11.21;41.38;100596.56;107513;1250;74049;-76
2022/04/20 16:07:05;;;;;;;15.40;8.70;;;;;;;11.26;41.24;100593.75;107382;1251;61719;-72
2022/04/20 16:09:34;;;;;;;16.30;8.10;;;;;;;11.31;41.14;100596.64;107409;1253;60637;-72
2022/04/20 16:12:05;;;;;;;11.00;7.50;;;;;;;11.36;40.86;100600.28;107472;1251;70851;-73
2022/04/20 16:14:34;;;;;;;18.00;9.00;;;;;;;11.20;40.85;100596.27;107319;1250;71511;-76
2022/04/20 16:17:03;;;;;;;14.00;9.40;;;;;;;10.95;41.36;100595.42;107505;1250;71009;-76
2022/04/20 16:19:36;;;;;;;14.70;8.20;;;;;;;10.88;41.63;100597.29;107254;1253;73886;-74
2022/04/20 16:22:06;;;;;;;;;;;;;;;10.98;41.19;100603.71;107121;1251;60093;-74
2022/04/20 16:24:34;;;;;;;12.10;8.10;;;;;;;10.96;41.36;100606.34;107351;1251;60232;-73
2022/04/20 16:27:03;;;;;;;13.00;8.60;;;;;;;11.01;40.65;100611.83;107243;1251;73858;-76
2022/04/20 16:29:34;;;;;;;15.60;8.10;;;;;;;10.85;40.98;100614.80;107491;1251;71101;-73
2022/04/20 16:32:06;;;;;;;14.10;8.40;;;;;;;10.76;41.12;100613.70;107512;1250;70519;-75
2022/04/20 16:34:36;;;;;;;13.20;8.60;;;;;;;10.70;41.91;100620.61;107454;1251;72733;-72
2022/04/20 16:37:05;;;;;;;10.50;7.70;;;;;;;10.55;46.94;100627.11;107149;1250;60650;-74
2022/04/20 16:39:36;;;;;;;11.70;7.70;;;;;;;10.27;50.80;100630.89;107213;1253;61551;-73
2022/04/20 16:42:06;;;;;;;10.80;7.50;;;;;;;9.99;52.88;100632.88;107260;1253;71523;-72
2022/04/20 16:44:35;;;;;;;10.30;7.80;;;;;;;9.85;52.94;100636.33;107319;1253;72257;-74
2022/04/20 16:47:04;;;;;;;13.20;8.30;;;;;;;9.70;54.44;100637.38;107556;1250;70141;-76
2022/04/20 16:49:33;;;;;;;14.60;8.90;;;;;;;9.66;54.56;100639.90;107122;1250;71707;-72
2022/04/20 16:52:02;;;;;;;12.30;8.90;;;;;;;9.62;54.97;100637.08;107207;1251;59481;-73
2022/04/20 16:54:31;;;;;;;16.10;10.70;;;;;;;9.60;55.14;100638.62;106860;1253;58944;-74
2022/04/20 16:57:00;;;;;;;14.30;10.00;;;;;;;9.49;55.56;100642.97;107115;1253;70955;-75
2022/04/20 16:59:31;;;;;;;13.30;9.40;;;;;;;9.46;55.47;100641.98;107147;1251;72305;-76
2022/04/20 17:02:05;;;;;;;17.70;11.50;;;;;;;9.39;55.68;100647.00;107110;1253;68449;-74
2022/04/20 17:04:34;;;;;;;20.30;13.70;;;;;;;9.25;57.36;100648.58;107252;1253;72314;-73
2022/04/20 17:07:04;;;;;;;21.10;12.50;;;;;;;9.21;58.22;100653.64;107264;1250;62191;-72
2022/04/20 17:09:34;;;;;;;22.70;12.30;;;;;;;9.14;58.56;100656.69;107302;1250;60027;-73
2022/04/20 17:12:04;;;;;;;19.80;12.30;;;;;;;9.03;59.29;100662.48;107213;1254;69928;-74
2022/04/20 17:14:34;;;;;;;16.70;10.50;;;;;;;8.89;59.97;100664.05;107281;1250;73201;-77
2022/04/20 17:17:05;;;;;;;17.70;11.50;;;;;;;8.88;59.71;100663.25;107282;1253;70802;-76
2022/04/20 17:19:34;;;;;;;16.20;10.00;;;;;;;8.80;60.03;100665.02;106998;1251;74513;-74
2022/04/20 17:27:47;;;;;;;19.00;11.20;;;;;;;8.60;61.08;100670.98;107391;1250;70797;-76
2022/04/20 17:30:26;;;;;;;20.40;11.80;;;;;;;8.62;61.05;100673.46;107319;1251;72601;-77
2022/04/20 17:32:55;;;;;;;16.40;10.10;;;;;;;8.62;61.19;100678.19;107299;1251;68321;-76
2022/04/20 17:38:12;;;;;;;15.60;10.40;;;;;;;8.51;62.00;100686.50;107397;1250;58963;-78
2022/04/20 17:40:41;;;;;;;14.70;9.50;;;;;;;8.54;62.00;100689.25;107539;1250;59258;-80
2022/04/20 17:43:11;;;;;;;18.40;10.70;;;;;;;8.53;62.12;100694.55;107656;1253;69703;-77
2022/04/20 17:45:41;;;;;;;16.20;9.60;;;;;;;8.57;61.91;100700.36;107704;1250;71777;-78
2022/04/20 17:48:09;;;;;;;15.30;9.20;;;;;;;8.59;62.07;100702.17;107568;1250;70730;-77
2022/04/20 17:50:38;;;;;;;13.10;9.10;;;;;;;8.47;62.81;100699.25;107497;1251;72627;-73
2022/04/20 17:53:08;;;;;;;13.70;9.50;;;;;;;8.45;63.06;100703.52;107282;1250;60750;-74
2022/04/20 17:55:37;;;;;;;12.20;8.90;;;;;;;8.42;63.47;100701.97;107596;1251;59119;-76
2022/04/20 17:58:06;;;;;;;13.90;10.00;;;;;;;8.33;63.85;100703.79;107437;1250;72144;-74
2022/04/20 18:00:35;;;;;;;13.70;8.80;;;;;;;8.23;64.20;100699.69;107567;1250;69559;-74
2022/04/20 18:03:04;;;;;;;17.00;9.40;;;;;;;8.18;64.60;100703.32;107415;1251;68008;-74
2022/04/20 18:05:34;;;;;;;17.00;9.40;;;;;;;8.16;65.12;100699.66;107399;1251;72346;-74
2022/04/20 18:08:04;;;;;;;16.10;9.60;;;;;;;8.10;65.75;100700.38;107518;1249;63011;-77
2022/04/20 18:10:33;;;;;;;14.50;8.80;;;;;;;8.09;65.95;100697.83;107372;1251;61903;-79
2022/04/20 18:13:02;;;;;;;14.70;10.10;;;;;;;8.04;66.49;100695.89;107407;1251;72478;-74
2022/04/20 18:15:31;;;;;;;17.80;9.50;;;;;;;8.00;66.39;100692.45;107501;1250;71043;-70
2022/04/20 18:18:00;;;;;;;13.90;10.10;;;;;;;8.04;66.59;100690.86;107338;1250;70915;-73
2022/04/20 18:20:29;;;;;;;12.30;9.50;;;;;;;7.99;66.63;100685.74;107486;1250;74488;-79
2022/04/20 18:22:58;;;;;;;14.90;10.20;;;;;;;7.86;67.04;100683.77;107646;1250;61139;-73
2022/04/20 18:25:26;;;;;;;16.00;10.70;;;;;;;7.79;67.00;100688.25;107339;1250;61617;-72
2022/04/20 18:27:56;;;;;;;16.40;11.20;;;;;;;7.79;67.44;100687.84;107581;1250;73918;-71
2022/04/20 18:30:25;;;;;;;23.90;12.30;;;;;;;7.76;67.61;100686.14;107414;1249;70229;-75
2022/04/20 18:32:56;;;;;;;20.00;11.50;;;;;;;7.78;67.75;100686.73;107040;1250;72312;-71
2022/04/20 18:35:25;;;;;;;16.90;11.50;;;;;;;7.82;67.63;100687.17;107188;1250;73593;-71
2022/04/20 18:37:54;;;;;;;20.30;12.20;;;;;;;7.86;67.16;100688.13;107584;1249;59330;-74
2022/04/20 18:40:36;;;;;;;18.30;12.00;;;;;;;7.92;66.50;100687.25;107417;1250;61062;-79
2022/04/20 18:43:05;;;;;;;13.60;10.40;;;;;;;7.96;65.53;100685.09;107315;1251;69841;-80
2022/04/20 18:45:34;;;;;;;21.20;14.90;;;;;;;8.01;66.12;100678.68;107287;1250;70284;-76
2022/04/20 18:48:05;;;;;;;19.20;11.80;;;;;;;8.08;65.16;100676.34;107635;1250;71074;-75
2022/04/20 18:50:34;;;;;;;17.30;12.10;;;;;;;8.10;64.85;100672.73;107769;1250;72387;-79
2022/04/20 18:58:38;;;;;;;19.00;11.50;;;;;;;8.03;63.97;100666.46;107583;1250;71165;-75
2022/04/20 19:01:08;;;;;;;19.30;13.10;;;;;;;8.04;63.50;100672.83;107932;1250;72440;-75
2022/04/20 19:03:38;;;;;;;20.90;12.00;;;;;;;8.01;63.26;100670.94;107209;1250;69857;-72
2022/04/20 19:06:07;;;;;;;18.40;11.70;;;;;;;7.95;63.54;100666.60;107658;1250;72867;-76
2022/04/20 19:08:36;;;;;;;16.40;11.10;;;;;;;7.95;63.62;100664.01;107393;1250;61463;-73
2022/04/20 19:11:06;;;;;;;15.80;11.00;;;;;;;8.01;63.08;100667.65;107225;1250;59629;-75
2022/04/20 19:13:35;;;;;;;19.80;10.70;;;;;;;8.06;62.48;100665.36;107229;1251;71650;-74
2022/04/20 19:16:05;;;;;;;15.40;10.50;;;;;;;8.10;62.00;100664.27;107226;1250;72046;-72
2022/04/20 19:18:34;;;;;;;11.60;8.00;;;;;;;8.10;61.69;100662.50;107161;1250;70190;-74
2022/04/20 19:21:03;;;;;;;14.60;8.50;;;;;;;8.13;61.56;100658.50;107266;1249;74681;-75
2022/04/20 19:23:32;;;;;;;10.70;7.90;;;;;;;8.16;61.29;100655.02;107028;1250;62191;-74
2022/04/20 19:26:01;;;;;;;10.70;8.00;;;;;;;8.20;61.17;100650.64;107021;1250;61462;-73
2022/04/20 19:28:30;;;;;;;13.70;8.50;;;;;;;8.25;61.03;100651.89;107226;1250;74148;-71
2022/04/20 19:30:59;;;;;;;14.60;8.90;;;;;;;8.26;60.93;100652.52;107282;1249;72113;-73
2022/04/20 19:33:28;;;;;;;12.00;8.20;;;;;;;8.25;61.42;100653.27;107192;1250;69232;-74
2022/04/20 19:35:57;;;;;;;12.20;8.80;;;;;;;8.22;61.20;100650.11;107374;1250;70555;-74
2022/04/20 19:38:26;;;;;;;12.20;8.80;;;;;;;8.23;61.49;100654.42;107548;1250;60568;-72
2022/04/20 19:40:58;;;;;;;14.50;8.40;;;;;;;8.22;61.72;100654.46;107162;1251;61762;-74
2022/04/20 19:43:28;;;;;;;11.70;8.40;;;;;;;8.18;62.24;100661.16;107297;1250;71758;-73
2022/04/20 19:45:56;;;;;;;12.20;8.10;;;;;;;8.21;61.91;100661.33;107375;1249;70565;-73
2022/04/20 19:48:26;;;;;;;14.40;9.40;;;;;;;8.22;61.41;100654.29;107095;1250;69877;-72
2022/04/20 19:50:55;;;;;;;13.90;8.80;;;;;;;8.15;62.24;100654.06;107361;1250;73985;-74
2022/04/20 19:53:24;;;;;;;14.40;9.10;;;;;;;8.15;61.92;100655.26;107172;1250;62088;-73
2022/04/20 19:55:53;;;;;;;13.80;9.00;;;;;;;8.15;62.02;100660.45;107376;1250;59120;-73
2022/04/20 19:58:23;;;;;;;11.20;7.50;;;;;;;8.19;61.65;100665.77;107509;1250;71682;-75